Terminal Aerodrome Forecast
Issued by NWS

Home | Current Version | Previous Version | Text Only | Print | Product List | Glossary On
Versions: 1 2 3 4 5 6 7 8 9 10 11 12
000
FTUS44 KLIX 201130
TAFGPT
TAF
KGPT 201130Z 2012/2112 06008KT P6SM BKN250
     FM201700 09010KT P6SM SCT035 BKN250
     FM211000 11008KT P6SM BKN025 BKN090=

USA.gov is the U.S. government's official web portal to all federal, state and local government web resources and services.